createdAt,value
2017-11-21T00:01:04.791Z,23.63
2017-11-21T00:03:31.102Z,22.97
2017-11-21T00:05:57.415Z,24.07
2017-11-21T00:08:23.697Z,25.20
2017-11-21T00:10:49.992Z,23.13
2017-11-21T00:13:16.267Z,24.67
2017-11-21T00:15:42.590Z,25.43
2017-11-21T00:18:09.614Z,24.50
2017-11-21T00:20:35.891Z,23.47
2017-11-21T00:23:02.195Z,24.53
2017-11-21T00:25:28.482Z,24.30
2017-11-21T00:27:54.783Z,25.10
2017-11-21T00:30:21.075Z,24.73
2017-11-21T00:32:47.366Z,26.60
2017-11-21T00:35:13.633Z,25.87
2017-11-21T00:37:39.932Z,26.17
2017-11-21T00:40:06.199Z,26.00
2017-11-21T00:42:32.514Z,27.17
2017-11-21T00:44:58.835Z,26.87
2017-11-21T00:47:25.147Z,27.80
2017-11-21T00:49:51.455Z,28.80
2017-11-21T00:52:17.769Z,26.73
2017-11-21T00:54:44.064Z,27.40
2017-11-21T00:57:10.354Z,29.40
2017-11-21T00:59:36.634Z,27.23
2017-11-21T01:02:02.954Z,27.53
2017-11-21T01:04:29.249Z,28.30
2017-11-21T01:06:55.579Z,27.13
2017-11-21T01:09:21.889Z,26.00
2017-11-21T01:11:48.170Z,26.37
2017-11-21T01:14:14.462Z,26.53
2017-11-21T01:16:40.738Z,26.90
2017-11-21T01:19:07.788Z,24.37
2017-11-21T01:21:34.110Z,25.33
2017-11-21T01:24:01.160Z,25.00
2017-11-21T01:26:28.199Z,26.10
2017-11-21T01:28:54.500Z,24.93
2017-11-21T01:31:20.815Z,25.67
2017-11-21T01:33:47.124Z,24.90
2017-11-21T01:36:14.169Z,24.20
2017-11-21T01:38:40.494Z,25.67
2017-11-21T01:41:07.510Z,27.10
2017-11-21T01:43:34.554Z,28.43
2017-11-21T01:46:00.830Z,24.80
2017-11-21T01:48:27.856Z,25.83
2017-11-21T01:50:54.869Z,24.30
2017-11-21T01:53:21.188Z,25.60
2017-11-21T01:55:47.431Z,25.33
2017-11-21T01:58:13.691Z,25.57
2017-11-21T02:00:40.734Z,26.77
2017-11-21T02:03:07.759Z,25.63
2017-11-21T02:05:34.024Z,25.97
2017-11-21T02:08:01.034Z,24.90
2017-11-21T02:10:27.330Z,24.80
2017-11-21T02:12:53.608Z,25.70
2017-11-21T02:15:20.645Z,26.80
2017-11-21T02:17:47.665Z,24.23
2017-11-21T02:20:13.966Z,27.20
2017-11-21T02:22:40.268Z,26.93
2017-11-21T02:25:07.321Z,26.93
2017-11-21T02:27:33.613Z,26.70
2017-11-21T02:29:59.928Z,25.37
2017-11-21T02:32:26.223Z,24.70
2017-11-21T02:34:52.518Z,24.80
2017-11-21T02:37:19.568Z,25.90
2017-11-21T02:39:46.613Z,25.13
2017-11-21T02:42:12.911Z,24.53
2017-11-21T02:44:39.206Z,25.27
2017-11-21T02:47:05.518Z,23.80
2017-11-21T02:49:32.548Z,23.67
2017-11-21T02:51:58.861Z,24.87
2017-11-21T02:54:25.161Z,26.10
2017-11-21T02:56:51.463Z,22.80
2017-11-21T02:59:18.489Z,23.53
2017-11-21T03:01:45.542Z,25.47
2017-11-21T03:04:12.581Z,24.90
2017-11-21T03:06:39.655Z,23.53
2017-11-21T03:09:07.646Z,24.27
2017-11-21T03:11:34.002Z,24.47
2017-11-21T03:14:00.287Z,23.00
2017-11-21T03:16:26.591Z,23.63
2017-11-21T03:18:52.953Z,23.43
2017-11-21T03:21:32.524Z,24.77
2017-11-21T03:24:11.235Z,22.63
2017-11-21T03:26:38.233Z,22.87
2017-11-21T03:29:04.576Z,24.73
2017-11-21T03:31:30.909Z,23.30
2017-11-21T03:33:57.229Z,23.97
2017-11-21T03:36:23.542Z,24.13
2017-11-21T03:38:50.627Z,23.13
2017-11-21T03:41:16.927Z,24.13
2017-11-21T03:43:43.245Z,23.70
2017-11-21T03:46:09.543Z,23.80
2017-11-21T03:48:35.899Z,24.50
2017-11-21T03:51:02.208Z,23.97
2017-11-21T03:53:28.520Z,25.87
2017-11-21T03:55:54.821Z,22.70
2017-11-21T03:58:21.887Z,23.07
2017-11-21T04:00:55.302Z,23.60
2017-11-21T04:03:21.627Z,24.37
2017-11-21T04:05:47.948Z,23.70
2017-11-21T04:08:14.251Z,23.60
2017-11-21T04:10:41.327Z,24.13
2017-11-21T04:13:07.619Z,23.57
2017-11-21T04:15:34.680Z,23.90
2017-11-21T04:18:01.726Z,22.40
2017-11-21T04:20:28.754Z,22.80
2017-11-21T04:22:55.813Z,21.37
2017-11-21T04:25:22.875Z,21.63
2017-11-21T04:27:49.171Z,24.50
2017-11-21T04:30:15.508Z,22.47
2017-11-21T04:32:42.556Z,22.10
2017-11-21T04:35:08.884Z,21.60
2017-11-21T04:37:35.198Z,22.50
2017-11-21T04:40:01.517Z,22.50
2017-11-21T04:42:27.823Z,22.33
2017-11-21T04:44:54.154Z,22.60
2017-11-21T04:47:20.470Z,22.33
2017-11-21T04:49:46.772Z,23.60
2017-11-21T04:52:13.084Z,21.23
2017-11-21T04:54:40.882Z,22.37
2017-11-21T04:57:07.231Z,21.83
2017-11-21T04:59:33.547Z,21.03
2017-11-21T05:01:59.875Z,23.00
2017-11-21T05:04:26.918Z,21.67
2017-11-21T05:06:53.264Z,20.80
2017-11-21T05:09:19.575Z,21.47
2017-11-21T05:11:46.626Z,21.00
2017-11-21T05:14:13.663Z,21.57
2017-11-21T05:16:40.717Z,23.10
2017-11-21T05:19:07.033Z,21.93
2017-11-21T05:21:34.832Z,23.17
2017-11-21T05:24:01.161Z,20.93
2017-11-21T05:26:27.482Z,21.63
2017-11-21T05:28:54.286Z,22.40
2017-11-21T05:31:21.636Z,22.93
2017-11-21T05:33:48.037Z,24.20
2017-11-21T05:36:14.363Z,23.07
2017-11-21T05:38:40.694Z,23.00
2017-11-21T05:41:07.031Z,24.97
2017-11-21T05:43:33.354Z,23.23
2017-11-21T05:45:59.655Z,23.77
2017-11-21T05:48:26.039Z,24.10
2017-11-21T05:50:52.379Z,23.70
2017-11-21T05:53:18.709Z,22.57
2017-11-21T05:55:45.049Z,23.17
2017-11-21T05:58:11.381Z,23.00
2017-11-21T06:00:37.696Z,22.23
2017-11-21T06:03:04.029Z,23.50
2017-11-21T06:05:30.357Z,23.80
2017-11-21T06:07:56.642Z,24.40
2017-11-21T06:10:23.677Z,23.90
2017-11-21T06:12:50.698Z,23.23
2017-11-21T06:15:16.983Z,20.97
2017-11-21T06:17:43.275Z,22.47
2017-11-21T06:20:10.331Z,23.40
2017-11-21T06:22:37.338Z,21.90
2017-11-21T06:25:03.647Z,21.33
2017-11-21T06:27:29.931Z,23.03
2017-11-21T06:29:56.991Z,24.73
2017-11-21T06:32:23.273Z,21.17
2017-11-21T06:34:49.586Z,23.47
2017-11-21T06:37:15.953Z,23.70
2017-11-21T06:39:43.477Z,23.40
2017-11-21T06:42:09.809Z,21.30
2017-11-21T06:44:36.180Z,21.07
2017-11-21T06:47:03.206Z,20.60
2017-11-21T06:49:29.489Z,20.60
2017-11-21T06:51:57.322Z,21.47
2017-11-21T06:54:23.620Z,21.43
2017-11-21T06:56:49.926Z,21.47
2017-11-21T06:59:16.214Z,21.43
2017-11-21T07:01:43.253Z,20.83
2017-11-21T07:04:09.547Z,20.27
2017-11-21T07:06:35.864Z,20.10
2017-11-21T07:09:02.207Z,19.77
2017-11-21T07:11:28.519Z,22.77
2017-11-21T07:13:54.808Z,21.57
2017-11-21T07:16:21.863Z,21.50
2017-11-21T07:18:48.897Z,20.70
2017-11-21T07:21:15.960Z,20.50
2017-11-21T07:23:42.270Z,19.10
2017-11-21T07:26:09.337Z,21.13
2017-11-21T07:28:36.375Z,21.53
2017-11-21T07:31:02.713Z,19.60
2017-11-21T07:33:29.021Z,21.33
2017-11-21T07:35:55.309Z,21.67
2017-11-21T07:38:21.646Z,20.77
2017-11-21T07:40:47.942Z,20.43
2017-11-21T07:43:14.266Z,21.70
2017-11-21T07:45:41.283Z,20.50
2017-11-21T07:48:07.620Z,22.10
2017-11-21T07:50:34.662Z,21.63
2017-11-21T07:53:00.985Z,21.20
2017-11-21T07:55:28.756Z,19.63
2017-11-21T07:57:55.054Z,20.33
2017-11-21T08:00:21.340Z,20.27
2017-11-21T08:02:47.658Z,21.57
2017-11-21T08:05:14.706Z,19.37
2017-11-21T08:07:41.769Z,20.60
2017-11-21T08:10:08.336Z,20.20
2017-11-21T08:12:34.714Z,20.00
2017-11-21T08:15:01.047Z,20.13
2017-11-21T08:17:28.121Z,20.70
2017-11-21T08:19:54.455Z,21.30
2017-11-21T08:22:20.794Z,21.37
2017-11-21T08:24:47.116Z,19.50
2017-11-21T08:27:13.444Z,19.40
2017-11-21T08:29:39.777Z,21.17
2017-11-21T08:32:06.103Z,19.57
2017-11-21T08:34:32.457Z,20.40
2017-11-21T08:36:58.790Z,19.63
2017-11-21T08:39:25.090Z,19.50
2017-11-21T08:41:51.422Z,21.87
2017-11-21T08:44:17.728Z,19.07
2017-11-21T08:46:44.780Z,19.13
2017-11-21T08:49:11.815Z,19.90
2017-11-21T08:51:38.115Z,20.03
2017-11-21T08:54:04.439Z,20.20
2017-11-21T08:56:30.728Z,19.30
2017-11-21T08:58:57.042Z,17.93
2017-11-21T09:01:24.099Z,18.30
2017-11-21T09:03:51.152Z,18.93
2017-11-21T09:06:18.205Z,19.60
2017-11-21T09:08:45.228Z,18.40
2017-11-21T09:11:11.620Z,17.80
2017-11-21T09:13:37.939Z,18.80
2017-11-21T09:16:04.259Z,18.87
2017-11-21T09:18:30.605Z,19.63
2017-11-21T09:20:56.938Z,17.47
2017-11-21T09:23:23.240Z,18.23
2017-11-21T09:25:49.537Z,18.07
2017-11-21T09:28:15.836Z,18.07
2017-11-21T09:30:42.151Z,17.50
2017-11-21T09:33:08.450Z,19.73
2017-11-21T09:35:34.768Z,18.60
2017-11-21T09:38:01.828Z,18.20
2017-11-21T09:40:28.162Z,18.90
2017-11-21T09:42:54.454Z,20.10
2017-11-21T09:45:20.793Z,18.70
2017-11-21T09:47:47.084Z,18.20
2017-11-21T09:50:13.385Z,18.90
2017-11-21T09:52:39.688Z,18.63
2017-11-21T09:55:06.015Z,18.27
2017-11-21T09:57:33.074Z,17.90
2017-11-21T10:00:00.114Z,17.73
2017-11-21T10:02:27.160Z,16.90
2017-11-21T10:04:54.219Z,17.90
2017-11-21T10:07:20.557Z,17.77
2017-11-21T10:09:47.611Z,18.37
2017-11-21T10:12:13.948Z,19.50
2017-11-21T10:14:40.271Z,17.70
2017-11-21T10:17:06.603Z,17.33
2017-11-21T10:19:32.927Z,17.97
2017-11-21T10:21:59.275Z,16.87
2017-11-21T10:24:25.633Z,16.50
2017-11-21T10:26:52.004Z,18.00
2017-11-21T10:29:19.077Z,18.10
2017-11-21T10:31:45.395Z,17.60
2017-11-21T10:34:11.720Z,18.83
2017-11-21T10:36:38.783Z,17.60
2017-11-21T10:39:05.124Z,16.90
2017-11-21T10:41:31.479Z,17.70
2017-11-21T10:43:57.780Z,16.57
2017-11-21T10:46:24.116Z,18.03
2017-11-21T10:48:50.418Z,17.20
2017-11-21T10:51:16.723Z,15.57
2017-11-21T10:53:43.047Z,16.50
2017-11-21T10:56:09.363Z,17.13
2017-11-21T10:58:35.705Z,17.27
2017-11-21T11:01:02.782Z,17.10
2017-11-21T11:03:29.127Z,19.50
2017-11-21T11:05:55.518Z,18.30
2017-11-21T11:08:22.616Z,15.90
2017-11-21T11:10:48.965Z,15.97
2017-11-21T11:13:15.326Z,15.50
2017-11-21T11:15:41.651Z,14.80
2017-11-21T11:18:07.980Z,16.10
2017-11-21T11:20:34.318Z,15.10
2017-11-21T11:23:00.666Z,16.10
2017-11-21T11:25:27.741Z,15.70
2017-11-21T11:27:54.075Z,15.50
2017-11-21T11:30:20.418Z,15.43
2017-11-21T11:32:46.755Z,15.43
2017-11-21T11:35:13.078Z,15.93
2017-11-21T11:37:39.407Z,17.17
2017-11-21T11:40:05.760Z,17.60
2017-11-21T11:42:32.106Z,17.47
2017-11-21T11:44:58.450Z,17.80
2017-11-21T11:47:25.552Z,17.60
2017-11-21T11:49:51.921Z,17.30
2017-11-21T11:52:19.031Z,17.03
2017-11-21T11:54:45.414Z,15.33
2017-11-21T11:57:12.589Z,15.07
2017-11-21T11:59:38.998Z,15.43
2017-11-21T12:02:05.358Z,16.00
2017-11-21T12:04:31.712Z,17.67
2017-11-21T12:06:58.090Z,16.67
2017-11-21T12:09:25.182Z,15.97
2017-11-21T12:11:51.520Z,17.00
2017-11-21T12:14:17.851Z,15.47
2017-11-21T12:16:44.227Z,16.17
2017-11-21T12:19:11.313Z,16.60
2017-11-21T12:21:37.660Z,17.70
2017-11-21T12:24:04.004Z,16.90
2017-11-21T12:26:30.351Z,15.70
2017-11-21T12:28:57.440Z,16.60
2017-11-21T12:31:23.800Z,17.90
2017-11-21T12:33:50.180Z,17.53
2017-11-21T12:36:17.265Z,16.80
2017-11-21T12:38:43.613Z,16.60
2017-11-21T12:41:09.952Z,16.50
2017-11-21T12:43:36.307Z,16.90
2017-11-21T12:46:03.392Z,17.43
2017-11-21T12:48:29.770Z,16.90
2017-11-21T12:50:56.101Z,18.40
2017-11-21T12:53:22.464Z,15.37
2017-11-21T12:55:49.578Z,15.90
2017-11-21T12:58:15.929Z,16.03
2017-11-21T13:00:42.993Z,14.40
2017-11-21T13:03:10.080Z,14.27
2017-11-21T13:05:36.430Z,14.73
2017-11-21T13:08:02.759Z,14.90
2017-11-21T13:10:29.128Z,15.30
2017-11-21T13:12:56.203Z,15.60
2017-11-21T13:15:22.535Z,16.33
2017-11-21T13:17:48.868Z,16.67
2017-11-21T13:20:15.203Z,15.20
2017-11-21T13:22:41.533Z,13.67
2017-11-21T13:25:07.874Z,15.77
2017-11-21T13:27:34.221Z,15.27
2017-11-21T13:30:00.577Z,15.67
2017-11-21T13:32:27.654Z,16.47
2017-11-21T13:34:53.996Z,15.80
2017-11-21T13:37:20.336Z,16.53
2017-11-21T13:39:46.682Z,16.87
2017-11-21T13:42:12.995Z,17.00
2017-11-21T13:44:39.341Z,17.83
2017-11-21T13:47:05.687Z,17.37
2017-11-21T13:49:32.022Z,16.30
2017-11-21T13:51:58.360Z,16.40
2017-11-21T13:54:32.726Z,16.77
2017-11-21T13:56:59.063Z,16.43
2017-11-21T13:59:25.401Z,16.60
2017-11-21T14:01:51.747Z,18.40
2017-11-21T14:04:18.070Z,16.30
2017-11-21T14:06:44.409Z,16.17
2017-11-21T14:09:10.731Z,18.07
2017-11-21T14:11:37.064Z,17.00
2017-11-21T14:14:03.391Z,16.90
2017-11-21T14:16:29.749Z,16.27
2017-11-21T14:18:56.057Z,17.00
2017-11-21T14:21:22.403Z,16.37
2017-11-21T14:23:48.740Z,17.53
2017-11-21T14:26:15.082Z,18.10
2017-11-21T14:28:42.170Z,16.67
2017-11-21T14:31:08.514Z,17.00
2017-11-21T14:33:34.846Z,19.10
2017-11-21T14:36:01.179Z,17.30
2017-11-21T14:38:27.521Z,19.50
2017-11-21T14:40:53.865Z,18.17
2017-11-21T14:43:20.936Z,17.27
2017-11-21T14:45:48.022Z,18.20
2017-11-21T14:48:14.349Z,18.70
2017-11-21T14:50:40.697Z,17.73
2017-11-21T14:53:07.041Z,18.77
2017-11-21T14:55:33.393Z,16.97
2017-11-21T14:57:59.871Z,17.03
2017-11-21T15:00:26.201Z,17.40
2017-11-21T15:02:52.532Z,18.20
2017-11-21T15:05:18.854Z,19.80
2017-11-21T15:07:45.187Z,17.33
2017-11-21T15:10:11.503Z,18.80
2017-11-21T15:12:37.833Z,18.90
2017-11-21T15:15:04.907Z,18.00
2017-11-21T15:17:31.233Z,18.20
2017-11-21T15:19:57.553Z,18.23
2017-11-21T15:22:23.890Z,19.80
2017-11-21T15:24:50.964Z,17.13
2017-11-21T15:27:17.274Z,18.30
2017-11-21T15:29:43.630Z,17.13
2017-11-21T15:32:09.950Z,18.33
2017-11-21T15:34:36.289Z,17.10
2017-11-21T15:37:02.612Z,17.73
2017-11-21T15:39:28.919Z,18.17
2017-11-21T15:41:55.218Z,18.03
2017-11-21T15:44:21.541Z,18.83
2017-11-21T15:46:47.830Z,19.73
2017-11-21T15:49:14.154Z,19.30
2017-11-21T15:51:40.463Z,18.57
2017-11-21T15:54:07.529Z,19.13
2017-11-21T15:56:33.854Z,19.07
2017-11-21T15:59:00.939Z,19.00
2017-11-21T16:01:27.236Z,18.70
2017-11-21T16:03:53.603Z,17.27
2017-11-21T16:06:19.933Z,19.20
2017-11-21T16:08:46.267Z,17.07
2017-11-21T16:11:12.598Z,19.13
2017-11-21T16:13:38.915Z,19.10
2017-11-21T16:16:05.256Z,17.67
2017-11-21T16:18:31.862Z,18.20
2017-11-21T16:20:58.214Z,18.37
2017-11-21T16:23:24.541Z,17.90
2017-11-21T16:25:50.861Z,18.20
2017-11-21T16:28:17.258Z,18.50
2017-11-21T16:30:43.605Z,16.83
2017-11-21T16:33:09.919Z,20.17
2017-11-21T16:35:36.968Z,17.20
2017-11-21T16:38:03.278Z,19.47
2017-11-21T16:40:30.380Z,18.73
2017-11-21T16:42:56.698Z,17.93
2017-11-21T16:45:23.019Z,17.60
2017-11-21T16:47:49.366Z,15.97
2017-11-21T16:50:15.681Z,18.20
2017-11-21T16:52:42.010Z,16.93
2017-11-21T16:55:08.330Z,17.30
2017-11-21T16:57:35.389Z,16.60
2017-11-21T17:00:01.702Z,18.40
2017-11-21T17:02:28.046Z,16.73
2017-11-21T17:04:54.355Z,16.00
2017-11-21T17:07:21.426Z,16.00
2017-11-21T17:09:47.746Z,16.80
2017-11-21T17:12:14.067Z,17.27
2017-11-21T17:14:41.181Z,16.33
2017-11-21T17:17:07.518Z,15.73
2017-11-21T17:19:33.839Z,16.77
2017-11-21T17:22:00.153Z,15.23
2017-11-21T17:24:26.486Z,14.00
2017-11-21T17:26:52.780Z,13.70
2017-11-21T17:29:19.821Z,15.07
2017-11-21T17:31:46.842Z,14.70
2017-11-21T17:34:13.913Z,13.00
2017-11-21T17:36:40.934Z,13.23
2017-11-21T17:39:07.260Z,13.23
2017-11-21T17:41:33.579Z,13.53
2017-11-21T17:44:00.188Z,13.10
2017-11-21T17:46:26.482Z,12.30
2017-11-21T17:48:52.827Z,11.67
2017-11-21T17:51:19.142Z,13.00
2017-11-21T17:53:46.213Z,16.10
2017-11-21T17:56:12.531Z,13.30
2017-11-21T17:58:38.871Z,12.80
2017-11-21T18:01:05.202Z,11.83
2017-11-21T18:03:31.521Z,12.40
2017-11-21T18:05:57.845Z,12.27
2017-11-21T18:08:24.892Z,13.87
2017-11-21T18:10:51.225Z,13.43
2017-11-21T18:13:17.584Z,13.27
2017-11-21T18:15:43.975Z,12.77
2017-11-21T18:18:10.301Z,15.03
2017-11-21T18:20:37.375Z,13.77
2017-11-21T18:23:03.672Z,12.50
2017-11-21T18:25:30.763Z,12.33
2017-11-21T18:27:57.054Z,11.73
2017-11-21T18:30:24.085Z,12.10
2017-11-21T18:33:00.690Z,11.47
2017-11-21T18:35:27.011Z,11.80
2017-11-21T18:37:54.037Z,12.37
2017-11-21T18:40:20.346Z,10.07
2017-11-21T18:42:46.635Z,11.40
2017-11-21T18:45:12.973Z,10.80
2017-11-21T18:47:39.279Z,11.87
2017-11-21T18:50:05.611Z,10.67
2017-11-21T18:52:31.927Z,11.30
2017-11-21T18:54:58.242Z,10.67
2017-11-21T18:57:24.531Z,11.17
2017-11-21T18:59:50.842Z,10.83
2017-11-21T19:02:17.129Z,11.07
2017-11-21T19:04:43.411Z,10.23
2017-11-21T19:07:09.747Z,9.93
2017-11-21T19:09:36.156Z,10.77
2017-11-21T19:12:03.210Z,10.90
2017-11-21T19:14:29.510Z,11.60
2017-11-21T19:16:55.823Z,10.57
2017-11-21T19:19:22.140Z,10.10
2017-11-21T19:21:48.462Z,10.03
2017-11-21T19:24:14.749Z,11.37
2017-11-21T19:26:41.803Z,11.90
2017-11-21T19:29:08.123Z,11.40
2017-11-21T19:31:35.491Z,10.83
2017-11-21T19:34:01.835Z,11.10
2017-11-21T19:36:28.162Z,10.37
2017-11-21T19:38:54.495Z,11.57
2017-11-21T19:41:20.792Z,11.40
2017-11-21T19:43:47.830Z,10.53
2017-11-21T19:46:14.116Z,11.80
2017-11-21T19:48:40.423Z,11.77
2017-11-21T19:51:06.746Z,12.17
2017-11-21T19:53:33.784Z,12.07
2017-11-21T19:56:00.821Z,11.93
2017-11-21T19:58:27.887Z,12.30
2017-11-21T20:00:54.237Z,13.13
2017-11-21T20:03:20.558Z,13.30
2017-11-21T20:05:46.862Z,12.83
2017-11-21T20:08:13.912Z,13.13
2017-11-21T20:10:41.039Z,11.47
2017-11-21T20:13:07.396Z,13.50
2017-11-21T20:15:34.445Z,13.47
2017-11-21T20:18:00.947Z,12.47
2017-11-21T20:20:28.071Z,12.43
2017-11-21T20:22:54.436Z,14.93
2017-11-21T20:25:20.784Z,13.30
2017-11-21T20:27:47.123Z,12.90
2017-11-21T20:30:13.466Z,14.00
2017-11-21T20:32:39.824Z,14.43
2017-11-21T20:35:06.159Z,13.73
2017-11-21T20:37:32.802Z,13.40
2017-11-21T20:39:59.152Z,13.60
2017-11-21T20:42:25.464Z,13.37
2017-11-21T20:44:51.825Z,13.80
2017-11-21T20:47:18.882Z,13.57
2017-11-21T20:49:45.958Z,13.90
2017-11-21T20:52:12.333Z,13.77
2017-11-21T20:54:38.638Z,13.40
2017-11-21T20:57:04.995Z,13.47
2017-11-21T20:59:31.305Z,12.80
2017-11-21T21:01:57.627Z,12.40
2017-11-21T21:04:24.288Z,13.83
2017-11-21T21:06:50.596Z,12.63
2017-11-21T21:09:16.881Z,14.10
2017-11-21T21:11:43.937Z,12.00
2017-11-21T21:14:11.243Z,12.70
2017-11-21T21:16:37.627Z,11.00
2017-11-21T21:19:04.715Z,10.80
2017-11-21T21:21:31.025Z,11.33
2017-11-21T21:23:57.331Z,10.57
2017-11-21T21:26:24.123Z,10.20
2017-11-21T21:28:51.216Z,10.33
2017-11-21T21:31:18.237Z,9.43
2017-11-21T21:33:44.541Z,10.50
2017-11-21T21:36:17.779Z,9.33
2017-11-21T21:38:44.847Z,9.83
2017-11-21T21:41:11.222Z,8.50
2017-11-21T21:43:37.513Z,9.00
2017-11-21T21:46:03.829Z,9.50
2017-11-21T21:48:30.987Z,8.60
2017-11-21T21:50:57.266Z,7.43
2017-11-21T21:53:23.584Z,9.10
2017-11-21T21:55:49.882Z,7.47
2017-11-21T21:58:16.239Z,7.80
2017-11-21T22:00:42.567Z,9.17
2017-11-21T22:03:08.871Z,8.80
2017-11-21T22:05:35.187Z,8.77
2017-11-21T22:08:01.537Z,9.10
2017-11-21T22:10:27.941Z,8.60
2017-11-21T22:12:54.304Z,8.43
2017-11-21T22:15:20.696Z,8.50
2017-11-21T22:17:47.775Z,9.23
2017-11-21T22:20:14.099Z,8.77
2017-11-21T22:22:40.399Z,8.50
2017-11-21T22:25:07.468Z,8.40
2017-11-21T22:27:34.519Z,8.67
2017-11-21T22:30:01.571Z,7.97
2017-11-21T22:32:27.867Z,8.40
2017-11-21T22:34:55.648Z,8.00
2017-11-21T22:37:22.083Z,7.90
2017-11-21T22:39:49.130Z,7.23
2017-11-21T22:42:16.195Z,7.70
2017-11-21T22:44:42.543Z,8.27
2017-11-21T22:47:08.835Z,8.80
2017-11-21T22:49:35.942Z,7.80
2017-11-21T22:52:02.273Z,7.53
2017-11-21T22:54:28.610Z,8.13
2017-11-21T22:56:54.919Z,7.03
2017-11-21T22:59:21.408Z,8.47
2017-11-21T23:01:47.758Z,7.30
2017-11-21T23:04:14.106Z,7.60
2017-11-21T23:06:40.682Z,7.40
2017-11-21T23:09:07.080Z,8.53
2017-11-21T23:11:33.443Z,7.60
2017-11-21T23:13:59.779Z,6.93
2017-11-21T23:16:26.088Z,7.40
2017-11-21T23:18:53.912Z,7.63
2017-11-21T23:21:20.239Z,5.87
2017-11-21T23:23:46.542Z,6.60
2017-11-21T23:26:12.866Z,5.97
2017-11-21T23:28:39.915Z,6.83
2017-11-21T23:31:06.225Z,7.27
2017-11-21T23:33:32.549Z,6.07
2017-11-21T23:35:58.872Z,5.83
2017-11-21T23:38:25.202Z,5.93
2017-11-21T23:40:51.500Z,5.33
2017-11-21T23:43:17.812Z,5.70
2017-11-21T23:45:45.481Z,5.73
2017-11-21T23:48:12.359Z,5.63
2017-11-21T23:50:46.090Z,4.90
2017-11-21T23:53:12.409Z,4.87
2017-11-21T23:55:38.706Z,4.90
2017-11-21T23:58:05.015Z,4.67
